Scroll down
FLIGHT INFORMATION
American Airlines

AAL693

At Arrival Gate

PHNL
 KPHX
DATE: 2021-02-13
GATE: 
GATE DEPARTURE: 16:31
TAKEOFF: 16:47
DATE: 2021-02-13
GATE: A18
LANDING: 22:16
GATE ARRIVAL: 22:22
FLIGHT DATA
Crew: 
Speed: 
493 kts
Altitude: 
35,016 ft
Stage Length: 
2,531.5 nm
Block Time: 
5.8 hrs
Flight Time: 
5.5 hrs
Fuel Used: 
80,251 lb
Cleared Route: PHNL MKK BLUSH SESXI ALICA EBBER ELOYI ERROT ETNIC ETECO EDSEL EDTOO ELKEY SXC BLH SCOLE SPINK SNRRA SWOON HYDRR GEELA PUNNT TEICH TESLE FALGO CAGOR JAMIL RW08
TRACK DATA
50,000 ft 1,000 kts
AIRCRAFT INFO AND CUMULATIVE STATS
Aircraft Type: 
B772
Registration: 
SELCAL: 
LPQS
MSN/LN: 
29579 / 190
Operator: 
Total Flights: 
14
Total Block Time: 
66 hrs
Total Flight Time: 
61.4 hrs
Total Fuel Used: 
904,109 lb
DATALINK LOG | Newest first | Current as of: 2022-11-26 08:19:06
LABEL SEQUENCE CONTENT Dn/Up
UM2122915KPHX ATIS - PHX ATIS INFO G 0251Z. 24008KT 10SM CLR 17/03 A2976 (TWO NINER SEVEN SIX). SIMUL APCHS IN USE. EXPECT VISUAL APCH RWY 26, VISUAL APCH RWY 25L. DEPARTING RWY 25R. NOTAMS... PXR OTS. MULT CRANES INVOF ARPT. BIRD ACTIVITY INVOF ARPT. READBACK HOLD SHORT INSTRUCTIONS. ...ADVS YOU HAVE INFO G.▲ Up
DM792905 ATIS KPHX A▼ Dn
QD240222:22 5.6▼ Dn
QC165622:16▼ Dn
2U1124KPHX 132151Z 28014KT 10SM FEW080 FEW130 SCT230 BKN270 21/03 A2964 RMK AO2 SLP028 T02060028 $▲ Up
2S1252KPHX▼ Dn
UM2124537KPHX ATIS - PHX ATIS INFO G 0251Z. 24008KT 10SM CLR 17/03 A2976 (TWO NINER SEVEN SIX). SIMUL APCHS IN USE. EXPECT VISUAL APCH RWY 26, VISUAL APCH RWY 25L. DEPARTING RWY 25R. NOTAMS... PXR OTS. MULT CRANES INVOF ARPT. BIRD ACTIVITY INVOF ARPT. READBACK HOLD SHORT INSTRUCTIONS. ...ADVS YOU HAVE INFO G.▲ Up
DM794527 ATIS KPHX A▼ Dn
2U4313KPHX 132051Z 22007KT 10SM FEW130 BKN200 BKN250 21/03 A2965 RMK AO2 SLP029 T02060033 56066 $▲ Up
2S4426KPHX▼ Dn
2U4244KPHX 132051Z 22007KT 10SM FEW130 BKN200 BKN250 21/03 A2965 RMK AO2 SLP029 T02060033 56066 $▲ Up
2U4152KPHX 132051Z 22007KT 10SM FEW130 BKN200 BKN250 21/03 A2965 RMK AO2 SLP029 T02060033 56066 $▲ Up
2S4225KPHX▼ Dn
2S4224KPHX▼ Dn
5Z412413 FEB 21 21:40:16z / FLT DECK GOOD / ACF POS GOOD / GRND SERVICES GOOD / MAINT GOOD▼ Dn
GA4133GATE A18▲ Up
GR4123KPHX 22:14 MAAS 00 YP/UM 01/02 WCHR/S/C 03/04/05 HI-VAL YES DIPL/VIP NO▼ Dn
2U4031PHNL 132053Z 05011KT 10SM FEW024 SCT038 SCT060 27/18 A3003 RMK AO2 RAE07 SLP169 P0000 60000 T02670178 53009▲ Up
2S4022PHNL▼ Dn
QB484216:47▼ Dn
QA322716:31 85.8▼ Dn
A31621CLEARED TO KPHX VIA MKK4 EBBER R577 ELKEY SXC BLH HYDRR1. SQUAWK 7122.▲ Up
B31611PHNL KPHX AAL693 N771AN Q ▼ Dn
5U1449KPHX 132012Z 18009KT 10SM SCT120 BKN250 11/03 A2989▲ Up
2U1443PHNL 131553Z 00000KT 10SM FEW025 21/18 A2998 RMK AO2 SLP153 T02060178▲ Up
5S1409KPHX▼ Dn
2S1409PHNL▼ Dn
Q01308[LINK ACK]▲ Up
Q01308[LINK TEST]▼ Dn


AIRCRAFT HISTORY
FLIGHT DATE FLIGHT NO. ORIGIN DESTINATION CLEARED ROUTE BLOCK TIME FLIGHT TIME FUEL USED PILOT
2021-05-21AAL519KDFW KTPA KDFW TREXX JOLEN PAXTN HANUH LYING FORCK ELD MEI CABLO HEVVN LEGGT TABIR DIPAY DARBS FOOXX DADPE BAYZZ WOBKI LAGOO RW01L2.5 hrs2.2 hrs31,837 lbChemtrails
2021-03-21AAL79EGLL KDFW EGLL D132B D254K WODNB D101H CPT KENET UGNUS OKTAD DOBEM TOPRO MEDOG FOXLA ABAPO PEMOB LANPI BAKUR DOGAL 5520N 5630N 5640N 5550N LOMSI ANCER POLTY KENLU PEPLA DERLO WWSHR DUTSH KLYNE PXV PENBE HUMBO RUSLR LIT FEWWW PROWD LETHR ARMYY SEEVR BRDJE COVIE LEMYN PITHY STONZ ROCKZ JEKIL DAYZZ RW35C9.5 hrs9.2 hrs138,941 lbGeorge
2021-03-20AAL9716KPHX EGLL KPHX SPRKY GOALY POCCK MRBIL YOTES JARPA RSK PUB OBH KP78G KP87K SSM MT ROBBE EXPOS JANJO 5650N 5840N 5930N 5920N AGORI OSBOX MIMKU KELLY CASEL PENIL WAL EKLAD MOGTA NANTI NUGRA TOBID SOPIT WCONB BNN CI27L RW27L10.2 hrs9.8 hrs150,499 lbGeorge
2021-03-13AAL421PHNL KPHX PHNL MKK BLUSH SESXI ALICA EBBER ELOYI ERROT ETNIC ETECO EDSEL EDTOO ELKEY LAX PDZ YCDIL WBERG BLH SCOLE SPINK SNRRA SWOON HYDRR GEELA AGGLA CHAVO LEMOE JAGAL RW265.5 hrs5.1 hrs74,389 lbGeorge
2021-03-13AAL692KPHX PHNL KPHX FUTEP AZCRD USEYE MASVE OAKLI KEENS IZZZO CULTS HRRBR CURIV DECAS PSP LAX DINTY ADUMM CUNDU BILLO BEKME BOARD BITTA BOWSZ HISPO BAMBO IHNET INOYI DZURA OOKAH COZES RW08L6.3 hrs6 hrs86,048 lbGeorge
2021-03-10AAL453KORD KPHX KORD OLINN OREOS OBENE OGALE KP66E KAWWA KD57Y PUB KD45U GUP KIRKM SLIDR TINIZ PAYSO EAGUL HOMRR VNNOM ESDEE BASSL DERVL JAGAL RW263.4 hrs3.2 hrs46,004 lbGeorge
2021-03-07AAL575KPHX KORD KPHX SPRKY FORPE LALUZ SJN ABQ FTI KENTO DRAWL GCK SLN AGENT KIDER IRK LOAMY KEOKK DRAMS RYELY BFORD BYLAW BENKY NEWRK AHSTN PETAH JORJO MONKZ TONIE RRUDA RW10C3.2 hrs2.8 hrs40,748 lbGeorge
2021-03-07AAL548KORD KPHX KORD PEKUE PIPPN ELYNA BACNN STJ SLN GCK CIM ZUN DOJOE SLIDR TINIZ PAYSO EAGUL HOMRR BOHTX GEENO QUENY HINEY OBASE JAMIL RW083.4 hrs3.1 hrs42,981 lbGeorge
2021-02-23AAL2343KLAX KORD KLAX HIIPR KLIPR KEGGS COOPP ORCKA NNAVY BLAZN LAS BAWER LARVE EKR KD66U BFF ONL FOD MYRRS SAAYY BENNR JBAGS BHAWK STNLE CUUPP CHMPN CLSBY FYTTE MOTRR COGSS MADII SOOLU JORJO MONKZ TONIE HAZIL RW28C3.8 hrs3.3 hrs47,295 lbGeorge
2021-02-18AAL1163KORD KLAX KORD MYKIE MONNY JORDY OBH HCT FQF HBU LRAIN TBC JASSE AREAF ESGEE DNERO SLLRS FLOJO SALYY GLESN ANJLL CAANN BOYEL CRCUS RW25L3.8 hrs3.6 hrs52,895 lbDan Downs
2021-02-14AAL1159KMIA KORD KMIA SENOY CIMBA FORKK VVMAX HEDLY STYMY ZERBO DUCEN OVENP FEMON VIYAP OLBEC ISUZO GURGE FISHO QUIWE BENBY DOOGE HAPKI TONIO OCASE HEVAN BONNT FRIDG WATSN HAUPO MKITA PRISE HULLS STYLE DWEEB CENAK HAZIL RW28C2.7 hrs2.3 hrs35,738 lbGeorge
2021-02-14AAL1635KORD KMIA KORD CMSKY CARYN CYBIL PXV BNA LGC GOONS BULZI SNAPY NICKI BITNY ENDEW JUULI BAARY CYY DEEDS SSCOT RUBOE WALIP LECIT COPRA RW08R3 hrs2.6 hrs38,525 lbGeorge
2021-02-13AAL615KPHX KORD KPHX WIVLA HIRVU ZIDOG OXYGN ZILUB FORPE LALUZ SJN ABQ FTI KENTO DRAWL GCK SLN AGENT KIDER IRK LOAMY KEOKK BDF BENKY NEWRK HAZIL RW28C3 hrs2.7 hrs37,956 lbGeorge
2021-02-13AAL693PHNL KPHX PHNL MKK BLUSH SESXI ALICA EBBER ELOYI ERROT ETNIC ETECO EDSEL EDTOO ELKEY SXC BLH SCOLE SPINK SNRRA SWOON HYDRR GEELA PUNNT TEICH TESLE FALGO CAGOR JAMIL RW085.8 hrs5.5 hrs80,251 lbGeorge